Time;durP1;ratioP1;P1;durP2;ratioP2;P2;SDS_P1;SDS_P2;PMS_P1;PMS_P2;Temp;Humidity;BMP_temperature;BMP_pressure;BME280_temperature;BME280_humidity;BME280_pressure;Samples;Min_cycle;Max_cycle;Signal;HPM_P1;HPM_P2
2023/04/08 00:04:57;;;;;;;17.47;8.17;;;;;8.00;101726.00;;;;10386580;28;20289;-77
2023/04/08 00:09:59;;;;;;;25.00;7.90;;;;;8.00;101711.00;;;;10355626;28;20558;-77
2023/04/08 00:15:01;;;;;;;14.83;7.70;;;;;8.00;101715.00;;;;10388642;28;20231;-77
2023/04/08 00:20:04;;;;;;;18.97;9.10;;;;;7.90;101720.00;;;;10346991;28;20884;-77
2023/04/08 00:25:08;;;;;;;18.10;9.67;;;;;7.90;101721.00;;;;10347505;28;20585;-77
2023/04/08 00:30:10;;;;;;;24.03;8.40;;;;;7.90;101714.00;;;;10371221;28;20546;-77
2023/04/08 00:35:12;;;;;;;30.70;8.23;;;;;7.90;101721.00;;;;10378201;28;20224;-77
2023/04/08 00:40:14;;;;;;;19.60;9.57;;;;;7.90;101719.00;;;;10365327;28;20648;-77
2023/04/08 00:45:16;;;;;;;19.37;8.60;;;;;7.90;101719.00;;;;10359723;28;20234;-77
2023/04/08 00:50:19;;;;;;;16.73;8.43;;;;;7.90;101725.00;;;;10364388;28;20230;-77
2023/04/08 00:55:21;;;;;;;18.53;8.83;;;;;7.90;101723.00;;;;10379508;28;20276;-77
2023/04/08 01:00:23;;;;;;;20.23;9.57;;;;;7.90;101725.00;;;;10386650;28;20195;-77
2023/04/08 01:05:50;;;;;;;18.67;8.73;;;;;7.90;101728.00;;;;10374743;28;20636;-78
2023/04/08 01:10:55;;;;;;;19.37;8.27;;;;;7.90;101728.00;;;;10389019;28;20242;-78
2023/04/08 01:15:58;;;;;;;21.83;8.97;;;;;7.90;101740.00;;;;10368127;28;20206;-78
2023/04/08 01:21:03;;;;;;;21.90;8.77;;;;;7.90;101731.00;;;;10405632;28;20207;-78
2023/04/08 01:26:05;;;;;;;20.87;9.83;;;;;7.80;101733.00;;;;10350359;28;20195;-78
2023/04/08 01:31:07;;;;;;;21.23;10.47;;;;;7.80;101734.00;;;;10356862;28;20703;-78
2023/04/08 01:36:09;;;;;;;26.63;10.70;;;;;7.70;101736.00;;;;10359168;28;20329;-78
2023/04/08 01:41:11;;;;;;;23.33;9.97;;;;;7.70;101734.00;;;;10389242;28;20206;-78
2023/04/08 01:46:14;;;;;;;24.40;10.50;;;;;7.70;101731.00;;;;10371528;28;20253;-78
2023/04/08 01:51:17;;;;;;;33.60;12.07;;;;;7.70;101734.00;;;;10403729;28;20214;-78
2023/04/08 01:56:21;;;;;;;34.17;11.00;;;;;7.70;101739.00;;;;10386355;28;20249;-78
2023/04/08 02:01:26;;;;;;;19.13;11.37;;;;;7.70;101741.00;;;;10369618;28;20300;-78
2023/04/08 02:06:29;;;;;;;28.77;11.37;;;;;7.60;101732.00;;;;10385135;28;20199;-78
2023/04/08 02:11:32;;;;;;;24.37;11.47;;;;;7.60;101736.00;;;;10367043;28;20207;-78
2023/04/08 02:16:51;;;;;;;23.20;11.17;;;;;7.60;101739.00;;;;10364000;28;20225;-78
2023/04/08 02:21:57;;;;;;;24.87;11.87;;;;;7.60;101737.00;;;;10402484;28;20203;-78
2023/04/08 02:27:00;;;;;;;34.30;12.00;;;;;7.60;101735.00;;;;10364437;28;20214;-78
2023/04/08 02:32:04;;;;;;;27.27;12.90;;;;;7.60;101740.00;;;;10418250;28;20868;-78
2023/04/08 02:37:07;;;;;;;26.40;12.57;;;;;7.50;101744.00;;;;10352327;28;20649;-78
2023/04/08 02:42:09;;;;;;;23.13;12.60;;;;;7.50;101750.00;;;;10369880;28;20569;-78
2023/04/08 02:47:12;;;;;;;29.33;12.83;;;;;7.50;101763.00;;;;10394822;28;20206;-78
2023/04/08 02:52:15;;;;;;;30.97;13.83;;;;;7.60;101765.00;;;;10335120;28;20225;-78
2023/04/08 02:57:17;;;;;;;23.97;13.50;;;;;7.60;101765.00;;;;10355863;28;20187;-78
2023/04/08 03:02:19;;;;;;;36.33;15.10;;;;;7.60;101774.00;;;;10351356;28;20204;-78
2023/04/08 03:07:22;;;;;;;30.17;14.37;;;;;7.60;101778.00;;;;10399239;28;20221;-78
2023/04/08 03:12:26;;;;;;;37.03;15.63;;;;;7.60;101774.00;;;;10384648;28;20629;-78
2023/04/08 03:17:28;;;;;;;37.43;16.00;;;;;7.60;101776.00;;;;10352696;28;20281;-78
2023/04/08 03:22:30;;;;;;;29.00;15.73;;;;;7.60;101771.00;;;;10384786;28;20191;-78
2023/04/08 03:27:32;;;;;;;33.33;16.47;;;;;7.60;101774.00;;;;10363749;28;20290;-78
2023/04/08 03:32:35;;;;;;;34.23;15.20;;;;;7.60;101779.00;;;;10359439;28;20211;-78
2023/04/08 03:37:37;;;;;;;29.43;16.20;;;;;7.60;101778.00;;;;10378358;28;20199;-78
2023/04/08 03:42:39;;;;;;;42.53;16.00;;;;;7.50;101775.00;;;;10378370;28;20202;-78
2023/04/08 03:47:41;;;;;;;35.33;17.23;;;;;7.50;101784.00;;;;10353311;28;20191;-78
2023/04/08 03:52:43;;;;;;;35.07;16.73;;;;;7.50;101792.00;;;;10380686;28;20305;-78
2023/04/08 03:57:45;;;;;;;34.90;18.03;;;;;7.50;101794.00;;;;10377719;28;20278;-78
2023/04/08 04:02:47;;;;;;;40.47;17.90;;;;;7.50;101801.00;;;;10372990;28;20306;-78
2023/04/08 04:07:49;;;;;;;31.50;16.90;;;;;7.50;101791.00;;;;10365462;28;20207;-78
2023/04/08 04:12:51;;;;;;;46.17;18.20;;;;;7.50;101795.00;;;;10385980;28;20700;-78
2023/04/08 04:17:56;;;;;;;37.23;18.10;;;;;7.50;101798.00;;;;10358105;28;20225;-78
2023/04/08 04:23:00;;;;;;;37.33;17.30;;;;;7.50;101802.00;;;;10375782;28;20274;-78
2023/04/08 04:28:02;;;;;;;36.13;18.60;;;;;7.50;101805.00;;;;10372784;28;20206;-78
2023/04/08 04:33:05;;;;;;;44.83;19.70;;;;;7.50;101807.00;;;;10391959;28;20215;-78
2023/04/08 04:38:11;;;;;;;42.77;17.77;;;;;7.50;101813.00;;;;10383763;28;20202;-78
2023/04/08 04:43:13;;;;;;;38.70;18.40;;;;;7.50;101823.00;;;;10362098;28;20601;-78
2023/04/08 04:48:15;;;;;;;38.50;18.90;;;;;7.50;101815.00;;;;10361641;28;20200;-78
2023/04/08 04:53:17;;;;;;;38.87;19.57;;;;;7.50;101832.00;;;;10349051;28;20311;-78
2023/04/08 04:58:19;;;;;;;37.70;18.90;;;;;7.50;101833.00;;;;10387779;28;20713;-78
2023/04/08 05:03:21;;;;;;;46.27;19.03;;;;;7.50;101841.00;;;;10357357;28;20238;-78
2023/04/08 05:08:23;;;;;;;47.60;19.93;;;;;7.60;101845.00;;;;10403680;28;20202;-78
2023/04/08 05:13:28;;;;;;;45.40;19.03;;;;;7.60;101846.00;;;;10387888;28;20206;-78
2023/04/08 05:18:31;;;;;;;43.37;18.40;;;;;7.60;101850.00;;;;10353769;28;20210;-78
2023/04/08 05:23:36;;;;;;;39.93;19.50;;;;;7.60;101847.00;;;;10350176;28;20196;-78
2023/04/08 05:28:38;;;;;;;43.10;19.70;;;;;7.70;101845.00;;;;10379762;28;20206;-78
2023/04/08 05:33:40;;;;;;;46.20;20.07;;;;;7.70;101847.00;;;;10367584;28;20302;-78
2023/04/08 05:38:43;;;;;;;49.27;20.80;;;;;7.80;101846.00;;;;10366208;28;20199;-79
2023/04/08 05:43:45;;;;;;;40.83;19.33;;;;;7.90;101852.00;;;;10372395;28;20365;-78
2023/04/08 05:48:46;;;;;;;38.00;20.67;;;;;8.00;101859.00;;;;10381711;28;20201;-77
2023/04/08 05:53:49;;;;;;;41.43;21.67;;;;;8.20;101853.00;;;;10334352;28;20225;-77
2023/04/08 05:58:51;;;;;;;51.43;20.93;;;;;8.40;101854.00;;;;10363928;28;20206;-77
2023/04/08 06:03:54;;;;;;;42.50;20.33;;;;;8.50;101860.00;;;;10350848;28;20195;-77
2023/04/08 06:08:57;;;;;;;48.27;21.10;;;;;8.60;101861.00;;;;10381633;28;20285;-77
2023/04/08 06:13:59;;;;;;;46.33;20.80;;;;;8.70;101871.00;;;;10361796;28;20226;-77
2023/04/08 06:19:01;;;;;;;43.03;20.87;;;;;8.80;101874.00;;;;10367917;28;20733;-77
2023/04/08 06:24:03;;;;;;;37.70;19.70;;;;;9.00;101879.00;;;;10369093;28;20261;-78
2023/04/08 06:29:05;;;;;;;40.80;20.97;;;;;9.10;101877.00;;;;10351979;28;20226;-81
2023/04/08 06:34:07;;;;;;;40.47;21.00;;;;;9.20;101874.00;;;;10397072;28;20459;-77
2023/04/08 06:39:09;;;;;;;41.30;21.17;;;;;9.50;101890.00;;;;10365596;28;20199;-78
2023/04/08 06:44:11;;;;;;;39.57;21.80;;;;;9.80;101899.00;;;;10346539;28;20198;-77
2023/04/08 06:49:13;;;;;;;43.03;22.27;;;;;10.00;101888.00;;;;10345339;28;20217;-77
2023/04/08 06:54:15;;;;;;;45.93;22.07;;;;;10.10;101883.00;;;;10352248;28;20989;-77
2023/04/08 06:59:17;;;;;;;44.67;22.00;;;;;10.40;101891.00;;;;10341776;28;20613;-78
2023/04/08 07:04:19;;;;;;;39.97;19.83;;;;;11.10;101900.00;;;;10355833;28;20292;-78
2023/04/08 07:09:22;;;;;;;29.30;17.87;;;;;11.50;101906.00;;;;10371726;28;20261;-77
2023/04/08 07:14:24;;;;;;;27.53;16.73;;;;;12.00;101908.00;;;;10351797;28;20309;-78
2023/04/08 07:19:26;;;;;;;28.37;17.37;;;;;11.50;101921.00;;;;10359705;28;20686;-77
2023/04/08 07:24:28;;;;;;;34.13;18.03;;;;;10.90;101938.00;;;;10373496;28;20710;-78
2023/04/08 07:29:31;;;;;;;28.23;16.07;;;;;10.60;101930.00;;;;10382157;28;20195;-78
2023/04/08 07:34:36;;;;;;;33.00;18.40;;;;;10.80;101936.00;;;;10351086;28;20226;-78
2023/04/08 07:39:38;;;;;;;31.50;18.23;;;;;11.10;101943.00;;;;10385772;28;20274;-77
2023/04/08 07:44:40;;;;;;;28.67;19.57;;;;;11.70;101945.00;;;;10358893;28;20206;-75
2023/04/08 07:49:45;;;;;;;33.53;19.77;;;;;11.80;101944.00;;;;10367716;28;20203;-78
2023/04/08 07:54:47;;;;;;;30.17;17.03;;;;;12.50;101954.00;;;;10349473;28;20211;-76
2023/04/08 07:59:50;;;;;;;20.73;13.60;;;;;12.80;101952.00;;;;10357277;28;20192;-76
2023/04/08 08:04:52;;;;;;;27.97;17.40;;;;;12.70;101960.00;;;;10366073;28;20209;-76
2023/04/08 08:09:54;;;;;;;26.80;15.97;;;;;13.30;101963.00;;;;10378621;28;20195;-76
2023/04/08 08:14:57;;;;;;;18.23;14.27;;;;;13.10;101975.00;;;;10348126;28;20608;-76
2023/04/08 08:20:00;;;;;;;21.67;14.40;;;;;13.10;101981.00;;;;10351952;28;20233;-76
2023/04/08 08:25:03;;;;;;;25.47;15.30;;;;;13.70;101989.00;;;;10371104;28;20213;-77
2023/04/08 08:30:06;;;;;;;16.50;11.80;;;;;13.60;101988.00;;;;10357796;28;20195;-76
2023/04/08 08:35:08;;;;;;;26.80;14.17;;;;;13.80;101988.00;;;;10372187;28;20292;-76
2023/04/08 08:40:11;;;;;;;18.70;11.30;;;;;14.20;101997.00;;;;10336382;28;20316;-76
2023/04/08 08:57:26;;;;;;;27.17;16.53;;;;;12.40;102002.00;;;;11205699;24;20457;-76
2023/04/08 09:02:30;;;;;;;27.47;17.53;;;;;11.60;102002.00;;;;10116990;24;20791;-75
2023/04/08 09:07:40;;;;;;;31.60;19.47;;;;;11.10;102000.00;;;;9890977;29;20207;-75
2023/04/08 09:12:53;;;;;;;35.43;20.47;;;;;10.80;101990.00;;;;9879500;29;20216;-75
2023/04/08 09:17:57;;;;;;;39.00;20.87;;;;;10.90;101992.00;;;;9855243;29;20212;-75
2023/04/08 09:23:01;;;;;;;31.83;20.27;;;;;11.00;101998.00;;;;9869006;29;20278;-75
2023/04/08 09:28:03;;;;;;;35.93;21.17;;;;;11.40;101995.00;;;;9840327;29;20283;-75
2023/04/08 09:33:06;;;;;;;32.83;21.47;;;;;11.80;101989.00;;;;9832323;29;20273;-75
2023/04/08 09:38:08;;;;;;;31.90;19.70;;;;;12.30;101995.00;;;;9841859;29;20223;-75
2023/04/08 09:43:14;;;;;;;38.33;22.77;;;;;13.40;101995.00;;;;9818754;29;20220;-75
2023/04/08 09:48:29;;;;;;;31.40;20.90;;;;;16.20;101980.00;;;;9817933;29;20303;-76
2023/04/08 09:53:35;;;;;;;28.73;18.75;;;;;17.90;101994.00;;;;9816615;29;20231;-76
2023/04/08 09:58:41;;;;;;;26.98;18.17;;;;;16.60;102004.00;;;;9832314;29;20214;-75
2023/04/08 10:03:49;;;;;;;24.83;17.38;;;;;15.50;101998.00;;;;9815963;29;20635;-75
2023/04/08 10:08:52;;;;;;;25.33;17.33;;;;;15.60;101992.00;;;;9796271;29;20768;-75
2023/04/08 10:13:54;;;;;;;13.52;10.52;;;;;16.30;101995.00;;;;9808966;29;20235;-75
2023/04/08 10:18:56;;;;;;;14.35;10.88;;;;;16.40;101997.00;;;;9837549;29;20231;-75
2023/04/08 10:24:04;;;;;;;11.35;9.55;;;;;16.10;102000.00;;;;9809797;29;20212;-75
2023/04/08 10:29:28;;;;;;;18.38;11.15;;;;;16.60;102003.00;;;;9806040;29;20305;-75
2023/04/08 10:34:30;;;;;;;25.23;16.90;;;;;15.90;102000.00;;;;9819450;29;20558;-75
2023/04/08 10:39:32;;;;;;;18.38;14.95;;;;;15.10;102002.00;;;;9819902;29;20214;-75
2023/04/08 10:44:34;;;;;;;17.55;13.90;;;;;14.70;102005.00;;;;9802770;29;20232;-75
2023/04/08 10:49:36;;;;;;;13.07;9.57;;;;;13.90;102011.00;;;;9780123;29;20303;-75
2023/04/08 10:54:47;;;;;;;13.93;9.60;;;;;13.40;102004.00;;;;9782333;29;20879;-75
2023/04/08 10:59:49;;;;;;;18.70;11.23;;;;;13.40;102012.00;;;;9790298;29;20568;-75
2023/04/08 11:04:53;;;;;;;20.40;15.63;;;;;13.50;102000.00;;;;9784687;29;20220;-74
2023/04/08 11:09:55;;;;;;;23.03;16.80;;;;;14.20;102001.00;;;;9798412;29;20218;-75
2023/04/08 11:14:57;;;;;;;24.77;15.63;;;;;15.10;101998.00;;;;9784677;29;20231;-75
2023/04/08 11:20:04;;;;;;;24.33;16.67;;;;;15.90;101988.00;;;;9787151;29;20208;-75
2023/04/08 11:25:09;;;;;;;22.48;15.73;;;;;16.20;101988.00;;;;9771534;29;20224;-75
2023/04/08 11:30:11;;;;;;;19.25;14.32;;;;;16.40;101985.00;;;;9743388;29;20217;-76
2023/04/08 11:35:15;;;;;;;23.40;14.43;;;;;16.60;101989.00;;;;9789295;29;20228;-75
2023/04/08 11:40:21;;;;;;;19.92;15.20;;;;;16.90;101978.00;;;;9841743;29;20227;-75
2023/04/08 11:45:23;;;;;;;18.02;13.50;;;;;17.00;101971.00;;;;9826629;29;20216;-75
2023/04/08 11:50:25;;;;;;;17.05;12.43;;;;;16.30;101981.00;;;;9829270;29;20212;-75
2023/04/08 11:55:29;;;;;;;14.23;10.80;;;;;16.40;101977.00;;;;9824723;29;20238;-75
2023/04/08 12:00:31;;;;;;;17.40;10.98;;;;;18.20;101980.00;;;;9817451;29;20702;-75
2023/04/08 12:05:34;;;;;;;13.45;10.85;;;;;18.30;101977.00;;;;9836039;29;20213;-75
2023/04/08 12:10:36;;;;;;;16.65;12.40;;;;;18.60;101974.00;;;;9832219;29;20751;-75
2023/04/08 12:15:38;;;;;;;16.02;11.50;;;;;17.50;101978.00;;;;9774204;29;20259;-76
2023/04/08 12:20:40;;;;;;;19.83;13.40;;;;;16.80;101976.00;;;;9769088;29;20227;-75
2023/04/08 12:25:42;;;;;;;17.17;12.65;;;;;16.50;101966.00;;;;9827261;29;20208;-75
2023/04/08 12:30:45;;;;;;;16.73;12.95;;;;;16.60;101972.00;;;;9834452;29;20584;-75
2023/04/08 12:35:47;;;;;;;16.35;11.90;;;;;17.00;101968.00;;;;9820787;29;20232;-75
2023/04/08 12:40:50;;;;;;;19.48;12.20;;;;;17.40;101969.00;;;;9803912;29;20220;-75
2023/04/08 12:45:52;;;;;;;16.80;12.43;;;;;18.10;101964.00;;;;9829942;29;20212;-75
2023/04/08 12:50:54;;;;;;;18.30;13.38;;;;;18.40;101946.00;;;;9838826;29;20552;-75
2023/04/08 12:55:56;;;;;;;22.15;13.63;;;;;19.00;101954.00;;;;9833625;29;20516;-76
2023/04/08 13:00:58;;;;;;;15.82;12.85;;;;;19.50;101944.00;;;;9855625;29;20272;-76
2023/04/08 13:06:00;;;;;;;13.57;11.68;;;;;19.30;101945.00;;;;9812012;29;20767;-76
2023/04/08 13:11:03;;;;;;;18.52;12.88;;;;;18.00;101959.00;;;;9824892;29;20251;-76
2023/04/08 13:16:05;;;;;;;17.98;13.63;;;;;17.00;101951.00;;;;9810757;29;20782;-76
2023/04/08 13:21:07;;;;;;;17.65;13.23;;;;;15.80;101946.00;;;;9830082;29;20227;-75
2023/04/08 13:26:10;;;;;;;22.75;14.15;;;;;15.20;101941.00;;;;9821559;29;20223;-75
2023/04/08 13:31:12;;;;;;;22.30;13.93;;;;;17.30;101933.00;;;;9849847;29;20212;-76
2023/04/08 13:36:14;;;;;;;18.67;15.02;;;;;20.30;101938.00;;;;9828388;30;20973;-76
2023/04/08 13:41:16;;;;;;;18.40;13.88;;;;;20.20;101917.00;;;;9839093;30;20278;-76
2023/04/08 13:46:18;;;;;;;17.17;13.35;;;;;24.40;101904.00;;;;9863367;30;20216;-76
2023/04/08 13:51:20;;;;;;;18.70;13.65;;;;;26.10;101911.00;;;;9821289;30;20220;-76
2023/04/08 13:56:22;;;;;;;18.30;14.55;;;;;22.10;101939.00;;;;9858764;29;20220;-76
2023/04/08 14:01:24;;;;;;;21.90;15.07;;;;;18.50;101933.00;;;;9863622;29;20216;-77
2023/04/08 14:06:27;;;;;;;18.58;14.32;;;;;16.90;101931.00;;;;9827864;29;20269;-76
2023/04/08 14:11:29;;;;;;;17.42;14.73;;;;;16.30;101936.00;;;;9878313;29;20553;-77
2023/04/08 14:16:31;;;;;;;20.10;14.40;;;;;15.70;101930.00;;;;9832537;29;20230;-76
2023/04/08 14:21:33;;;;;;;19.98;15.48;;;;;21.70;101892.00;;;;9820223;29;20208;-77
2023/04/08 14:26:36;;;;;;;23.80;16.08;;;;;24.40;101884.00;;;;9844739;29;20223;-77
2023/04/08 14:31:38;;;;;;;19.60;15.90;;;;;22.30;101914.00;;;;9875981;29;20203;-77
2023/04/08 14:36:40;;;;;;;19.20;14.80;;;;;18.50;101917.00;;;;9833464;29;20235;-76
2023/04/08 14:41:42;;;;;;;20.23;15.85;;;;;17.00;101910.00;;;;9849625;29;20220;-77
2023/04/08 14:46:44;;;;;;;22.05;17.05;;;;;16.40;101900.00;;;;9872279;29;20211;-76
2023/04/08 14:51:46;;;;;;;20.70;16.80;;;;;16.20;101904.00;;;;9851277;29;20216;-76
2023/04/08 14:56:48;;;;;;;21.48;16.40;;;;;16.00;101900.00;;;;9868589;29;20243;-77
2023/04/08 15:01:50;;;;;;;21.30;16.48;;;;;16.00;101905.00;;;;9856693;29;20244;-77
2023/04/08 15:06:52;;;;;;;24.40;17.40;;;;;15.90;101898.00;;;;9850199;30;20953;-76
2023/04/08 15:11:54;;;;;;;22.55;17.75;;;;;16.00;101905.00;;;;9872111;29;20224;-77
2023/04/08 15:16:56;;;;;;;20.65;16.08;;;;;15.90;101905.00;;;;9831083;29;20236;-77
2023/04/08 15:21:58;;;;;;;18.10;14.02;;;;;15.90;101908.00;;;;9833730;29;20204;-77
2023/04/08 15:27:00;;;;;;;18.67;14.40;;;;;15.70;101892.00;;;;9837883;29;20225;-77
2023/04/08 15:32:01;;;;;;;18.20;13.30;;;;;15.80;101894.00;;;;9808633;29;20216;-77
2023/04/08 15:37:03;;;;;;;14.35;11.48;;;;;15.80;101887.00;;;;9845324;29;20271;-77
2023/04/08 15:42:05;;;;;;;13.32;10.52;;;;;15.80;101888.00;;;;9831509;29;20219;-77
2023/04/08 15:47:08;;;;;;;14.25;10.35;;;;;15.70;101895.00;;;;9838844;29;20220;-77
2023/04/08 15:52:10;;;;;;;13.60;10.13;;;;;15.50;101892.00;;;;9824157;29;20212;-77
2023/04/08 15:57:12;;;;;;;17.90;11.35;;;;;16.00;101881.00;;;;9828434;29;20239;-77
2023/04/08 16:02:16;;;;;;;14.27;10.10;;;;;16.50;101888.00;;;;9843209;29;20289;-77
2023/04/08 16:07:18;;;;;;;14.10;10.70;;;;;16.80;101881.00;;;;9825542;29;20342;-77
2023/04/08 16:12:21;;;;;;;14.18;11.00;;;;;17.50;101889.00;;;;9848374;29;20207;-76
2023/04/08 16:17:23;;;;;;;15.57;11.18;;;;;17.20;101888.00;;;;9850261;29;20232;-77
2023/04/08 16:22:26;;;;;;;15.60;11.77;;;;;16.80;101890.00;;;;9817625;30;20758;-77
2023/04/08 16:27:28;;;;;;;12.63;10.65;;;;;16.40;101891.00;;;;9871138;29;20212;-76
2023/04/08 16:32:30;;;;;;;15.50;10.85;;;;;16.30;101883.00;;;;9868482;29;20917;-78
2023/04/08 16:37:32;;;;;;;11.30;9.48;;;;;16.00;101878.00;;;;9834407;29;20422;-76
2023/04/08 16:42:34;;;;;;;11.90;10.35;;;;;15.90;101887.00;;;;9833946;29;20887;-76
2023/04/08 16:47:38;;;;;;;13.48;10.25;;;;;15.70;101884.00;;;;9872792;29;20212;-76
2023/04/08 16:52:42;;;;;;;12.30;10.23;;;;;15.40;101889.00;;;;9864981;29;20215;-76
2023/04/08 16:57:44;;;;;;;13.38;10.45;;;;;15.10;101879.00;;;;9872884;29;20878;-76
2023/04/08 17:02:46;;;;;;;12.00;10.20;;;;;14.80;101888.00;;;;9904206;29;20235;-76
2023/04/08 17:07:48;;;;;;;13.02;9.60;;;;;14.70;101885.00;;;;9900031;29;20217;-76
2023/04/08 17:12:50;;;;;;;11.82;9.35;;;;;14.60;101884.00;;;;9860716;29;20201;-76
2023/04/08 17:17:52;;;;;;;11.68;9.75;;;;;14.50;101880.00;;;;9863234;29;20547;-76
2023/04/08 17:22:55;;;;;;;11.90;10.23;;;;;14.40;101882.00;;;;9850922;29;20216;-76
2023/04/08 17:27:57;;;;;;;14.73;11.10;;;;;14.40;101887.00;;;;9850289;29;20553;-76
2023/04/08 17:32:59;;;;;;;11.90;10.00;;;;;14.40;101883.00;;;;9859820;29;20208;-76
2023/04/08 17:38:02;;;;;;;12.93;9.53;;;;;14.20;101882.00;;;;9857919;29;20743;-76
2023/04/08 17:43:04;;;;;;;11.30;9.88;;;;;13.90;101880.00;;;;9890130;29;20664;-76
2023/04/08 17:48:06;;;;;;;14.30;10.15;;;;;13.50;101884.00;;;;9854875;29;20314;-76
2023/04/08 17:53:10;;;;;;;14.70;11.17;;;;;13.20;101892.00;;;;9878428;29;20243;-76
2023/04/08 17:58:12;;;;;;;14.37;10.90;;;;;12.90;101899.00;;;;9864864;30;20193;-76
2023/04/08 18:03:14;;;;;;;16.80;11.37;;;;;12.60;101907.00;;;;9888907;29;20527;-76
2023/04/08 18:08:17;;;;;;;14.93;12.17;;;;;12.30;101901.00;;;;9886304;29;20215;-76
2023/04/08 18:13:19;;;;;;;16.33;12.20;;;;;12.10;101905.00;;;;9857983;29;20208;-76
2023/04/08 18:18:21;;;;;;;16.47;12.67;;;;;11.90;101906.00;;;;9871573;29;20207;-76
2023/04/08 18:23:23;;;;;;;13.90;11.43;;;;;11.80;101907.00;;;;9862278;30;20308;-76
2023/04/08 18:28:25;;;;;;;14.00;12.03;;;;;11.80;101896.00;;;;9867136;30;20218;-76
2023/04/08 18:33:27;;;;;;;16.43;12.47;;;;;11.70;101910.00;;;;9885897;29;20636;-76
2023/04/08 18:38:29;;;;;;;15.43;12.57;;;;;11.50;101914.00;;;;9871247;29;20203;-76
2023/04/08 18:43:32;;;;;;;14.60;12.17;;;;;11.20;101921.00;;;;9885566;29;20208;-76
2023/04/08 18:48:34;;;;;;;15.13;11.80;;;;;11.00;101917.00;;;;9862902;29;20203;-76
2023/04/08 18:53:37;;;;;;;15.57;12.07;;;;;10.80;101922.00;;;;9865197;29;20251;-76
2023/04/08 18:58:39;;;;;;;15.83;12.77;;;;;10.60;101925.00;;;;9865630;29;20305;-76
2023/04/08 19:03:44;;;;;;;19.20;14.73;;;;;10.40;101937.00;;;;9878608;29;20963;-76
2023/04/08 19:08:47;;;;;;;15.97;12.80;;;;;10.30;101932.00;;;;9868627;29;20669;-76
2023/04/08 19:13:49;;;;;;;19.80;14.10;;;;;10.20;101926.00;;;;9860524;29;20224;-76
2023/04/08 19:18:54;;;;;;;17.10;13.73;;;;;10.10;101931.00;;;;9832940;29;20270;-76
2023/04/08 19:23:57;;;;;;;16.90;13.77;;;;;10.00;101945.00;;;;9821804;29;20208;-76
2023/04/08 19:28:59;;;;;;;19.07;14.60;;;;;9.90;101947.00;;;;9786137;29;20582;-76
2023/04/08 19:34:01;;;;;;;19.73;15.73;;;;;9.70;101942.00;;;;9791479;29;20227;-76
2023/04/08 19:39:04;;;;;;;20.07;14.77;;;;;9.50;101950.00;;;;9837194;29;20219;-75
2023/04/08 19:44:06;;;;;;;17.90;14.87;;;;;9.30;101945.00;;;;9812539;29;20214;-75
2023/04/08 19:49:08;;;;;;;22.53;15.23;;;;;9.20;101952.00;;;;9815748;29;20246;-78
2023/04/08 19:54:10;;;;;;;20.30;16.43;;;;;9.00;101949.00;;;;9835247;29;20256;-78
2023/04/08 19:59:12;;;;;;;18.53;14.77;;;;;8.90;101951.00;;;;9809092;29;20216;-77
2023/04/08 20:04:14;;;;;;;22.33;17.50;;;;;8.90;101944.00;;;;9816148;29;20240;-77
2023/04/08 20:09:16;;;;;;;22.87;17.63;;;;;8.70;101949.00;;;;9816554;29;20204;-77
2023/04/08 20:14:19;;;;;;;27.10;19.70;;;;;8.60;101959.00;;;;9807557;29;20589;-77
2023/04/08 20:19:21;;;;;;;32.43;21.67;;;;;8.50;101964.00;;;;9825728;29;20219;-77
2023/04/08 20:24:23;;;;;;;24.60;19.03;;;;;8.40;101964.00;;;;9826917;29;20274;-77
2023/04/08 20:29:25;;;;;;;26.73;19.63;;;;;8.20;101962.00;;;;9803508;29;20235;-77
2023/04/08 20:34:27;;;;;;;30.37;19.60;;;;;8.10;101963.00;;;;9810317;29;20231;-77
2023/04/08 20:39:30;;;;;;;23.43;18.07;;;;;8.00;101969.00;;;;9805041;29;20220;-77
2023/04/08 20:44:32;;;;;;;25.83;20.47;;;;;7.90;101968.00;;;;9807712;29;20231;-77
2023/04/08 20:49:36;;;;;;;25.87;19.70;;;;;7.80;101959.00;;;;9814422;29;20216;-77
2023/04/08 20:54:38;;;;;;;25.30;19.53;;;;;7.70;101963.00;;;;9835323;29;20220;-77
2023/04/08 20:59:52;;;;;;;29.50;22.40;;;;;7.60;101964.00;;;;9852543;24;20269;-92
2023/04/08 21:05:40;;;;;;;34.30;24.03;;;;;7.40;101959.00;;;;9867566;29;20219;-93
2023/04/08 21:11:23;;;;;;;34.97;22.60;;;;;7.30;101965.00;;;;9886141;24;20239;-77
2023/04/08 21:16:25;;;;;;;28.63;22.23;;;;;7.20;101954.00;;;;9842968;29;20243;-77
2023/04/08 21:21:27;;;;;;;29.40;20.23;;;;;7.10;101957.00;;;;9862161;29;20910;-77
2023/04/08 21:26:29;;;;;;;22.67;18.33;;;;;7.00;101960.00;;;;9871869;29;20196;-77
2023/04/08 21:31:31;;;;;;;26.47;20.40;;;;;6.90;101962.00;;;;9827025;29;20216;-77
2023/04/08 21:36:33;;;;;;;27.23;20.93;;;;;6.80;101960.00;;;;9855317;29;20231;-77
2023/04/08 21:41:35;;;;;;;30.20;21.17;;;;;6.80;101968.00;;;;9841321;29;20226;-77
2023/04/08 21:46:37;;;;;;;27.93;22.20;;;;;6.70;101963.00;;;;9839753;29;20683;-77
2023/04/08 21:51:39;;;;;;;29.27;22.40;;;;;6.60;101968.00;;;;9858356;29;20349;-77
2023/04/08 21:56:42;;;;;;;29.37;22.33;;;;;6.60;101964.00;;;;9828293;29;20238;-77
2023/04/08 22:01:44;;;;;;;27.37;20.47;;;;;6.50;101954.00;;;;9875753;29;20227;-77
2023/04/08 22:06:48;;;;;;;25.90;20.97;;;;;6.30;101962.00;;;;9849344;29;20210;-77
2023/04/08 22:11:50;;;;;;;27.00;20.60;;;;;6.20;101961.00;;;;9859386;29;20207;-77
2023/04/08 22:16:52;;;;;;;27.03;20.70;;;;;6.10;101960.00;;;;9863621;29;20230;-77
2023/04/08 22:21:54;;;;;;;28.13;22.03;;;;;6.10;101968.00;;;;9881998;29;20306;-77
2023/04/08 22:26:56;;;;;;;28.73;22.30;;;;;6.00;101960.00;;;;9865361;29;20211;-77
2023/04/08 22:31:58;;;;;;;38.40;25.13;;;;;6.00;101967.00;;;;9857685;29;20213;-77
2023/04/08 22:37:00;;;;;;;35.33;24.63;;;;;5.90;101959.00;;;;9843212;29;20323;-78
2023/04/08 22:42:02;;;;;;;35.97;24.33;;;;;5.80;101967.00;;;;9844564;29;20235;-77
2023/04/08 22:47:04;;;;;;;34.47;23.97;;;;;5.70;101970.00;;;;9910780;29;20211;-77
2023/04/08 22:52:06;;;;;;;31.40;22.70;;;;;5.70;101963.00;;;;9863443;29;20615;-77
2023/04/08 22:57:08;;;;;;;33.30;24.33;;;;;5.60;101966.00;;;;9838625;29;20643;-77
2023/04/08 23:02:09;;;;;;;31.87;23.77;;;;;5.50;101969.00;;;;9914210;29;20493;-77
2023/04/08 23:07:12;;;;;;;35.27;24.43;;;;;5.50;101965.00;;;;9913066;29;20260;-77
2023/04/08 23:12:14;;;;;;;33.03;24.23;;;;;5.40;101965.00;;;;9851804;30;20228;-77
2023/04/08 23:17:16;;;;;;;36.73;25.13;;;;;5.40;101957.00;;;;9861889;29;20238;-77
2023/04/08 23:22:18;;;;;;;32.23;22.47;;;;;5.30;101954.00;;;;9877709;29;20416;-76
2023/04/08 23:27:20;;;;;;;30.93;22.87;;;;;5.30;101956.00;;;;9856228;30;20295;-77
2023/04/08 23:32:22;;;;;;;28.73;20.83;;;;;5.20;101964.00;;;;9826166;30;20211;-77
2023/04/08 23:37:24;;;;;;;34.37;21.87;;;;;5.20;101962.00;;;;9828511;29;20892;-77
2023/04/08 23:42:26;;;;;;;37.90;25.43;;;;;5.10;101954.00;;;;9849422;29;20223;-77
2023/04/08 23:47:29;;;;;;;32.27;23.87;;;;;5.00;101956.00;;;;9873370;29;20224;-77
2023/04/08 23:52:32;;;;;;;35.07;25.83;;;;;5.00;101958.00;;;;9873471;29;20259;-77
2023/04/08 23:57:34;;;;;;;36.63;24.43;;;;;5.00;101964.00;;;;9888656;29;20477;-77
